Terminal Aerodrome Forecast
Issued by NWS Pittsburgh, PA

Current Version | Previous Version | Graphics & Text | Print | Product List | Glossary On
Versions: 1 2 3 4 5 6 7 8 9 10 11 12 13 14 15 16 17 18 19 20 21 22 23 24 25 26 27 28 29 30 31 32 33 34 35
693
FTUS41 KPBZ 130832 AAB
TAFPIT
TAF AMD
KPIT 130832Z 1309/1412 32018G23KT P6SM VCSH FEW016 SCT028
     FM131000 32014G23KT 4SM -SHSN BKN015 OVC022
     FM131500 31012G20KT P6SM BKN035=

USA.gov is the U.S. government's official web portal to all federal, state and local government web resources and services.